2MA4 weather

Compaq Littleton Heliport
Littleton, Massachusetts, United States

Public forecast

Using degrees Fahrenheit for public forecast. Weather courtesy of forecast.io.

METAR (pilot weather report)

Closest report is Laurence G Hanscom Field, 9.4 nm (17.4 km) ESE. Retrieved 2019/07/18 18:06 UTC (39 minutes ago):

KBED 181806Z 06009KT 10SM OVC028 24/15 A2998 RMK AO2 T02390150

TAF (pilot weather forecast)

Closest forecast is Laurence G Hanscom Field, 9.4 nm (17.4 km) ESE. Retrieved 2019/07/18 18:33 UTC (12 minutes ago):

TAF KBED 181730Z 1818/1918 05007KT P6SM OVC028 TEMPO 1818/1822 SCT027 BKN035 FM190200 04003KT 6SM BR BKN008 FM190500 00000KT P6SM BKN015 FM191400 24003KT P6SM SCT030